Time;durP1;ratioP1;P1;durP2;ratioP2;P2;SDS_P1;SDS_P2;PMS_P1;PMS_P2;Temp;Humidity;BMP_temperature;BMP_pressure;BME280_temperature;BME280_humidity;BME280_pressure;Samples;Min_cycle;Max_cycle;Signal;HPM_P1;HPM_P2
2023/03/26 00:00:42;;;;;;;1.57;1.40;;;8.30;99.90;;;;;;5067497;28;20290;-72
2023/03/26 00:03:10;;;;;;;1.63;1.53;;;8.30;99.90;;;;;;5067068;28;21011;-72
2023/03/26 00:05:37;;;;;;;1.97;1.50;;;8.30;99.90;;;;;;5066591;28;20207;-72
2023/03/26 00:08:07;;;;;;;1.50;1.40;;;8.30;99.90;;;;;;5067018;28;20316;-72
2023/03/26 00:10:35;;;;;;;2.17;1.43;;;8.30;99.90;;;;;;5067289;28;20227;-72
2023/03/26 00:13:02;;;;;;;1.60;1.50;;;8.30;99.90;;;;;;5066715;28;20211;-72
2023/03/26 00:15:29;;;;;;;1.53;1.43;;;8.30;99.90;;;;;;5066820;28;20211;-72
2023/03/26 00:17:56;;;;;;;3.33;1.17;;;8.40;99.90;;;;;;5066481;28;20294;-72
2023/03/26 00:20:24;;;;;;;2.60;0.97;;;8.40;99.90;;;;;;5066641;28;20717;-72
2023/03/26 00:22:52;;;;;;;2.00;1.30;;;8.40;99.90;;;;;;5066679;28;20264;-72
2023/03/26 00:25:20;;;;;;;1.60;1.10;;;8.40;99.90;;;;;;5066927;28;20713;-72
2023/03/26 00:27:48;;;;;;;1.20;1.10;;;8.40;99.90;;;;;;5067047;28;20239;-72
2023/03/26 00:30:15;;;;;;;1.23;1.13;;;8.40;99.90;;;;;;5067166;28;20234;-72
2023/03/26 00:32:42;;;;;;;1.27;1.00;;;8.40;99.90;;;;;;5066906;28;20211;-71
2023/03/26 00:35:11;;;;;;;2.43;1.23;;;8.40;99.90;;;;;;5053972;28;20688;-72
2023/03/26 00:37:41;;;;;;;1.60;1.30;;;8.30;99.90;;;;;;5046917;28;20212;-71
2023/03/26 00:40:09;;;;;;;2.20;1.10;;;8.30;99.90;;;;;;5046588;28;20330;-71
2023/03/26 00:42:38;;;;;;;1.70;1.00;;;8.30;99.90;;;;;;5053016;28;20213;-71
2023/03/26 00:45:06;;;;;;;1.23;0.70;;;8.30;99.90;;;;;;5066186;28;20307;-71
2023/03/26 00:47:34;;;;;;;1.97;1.13;;;8.30;99.90;;;;;;5066361;28;20265;-72
2023/03/26 00:50:03;;;;;;;1.80;0.90;;;8.30;99.90;;;;;;5066092;28;20228;-71
2023/03/26 00:52:30;;;;;;;2.53;1.00;;;8.30;99.90;;;;;;5066234;28;20248;-71
2023/03/26 00:54:57;;;;;;;1.43;1.00;;;8.30;99.90;;;;;;5065916;28;20215;-71
2023/03/26 00:57:29;;;;;;;2.93;0.93;;;8.40;99.90;;;;;;5066021;28;20772;-71
2023/03/26 00:59:57;;;;;;;1.37;0.93;;;8.30;99.90;;;;;;5066139;28;20231;-71
2023/03/26 01:02:26;;;;;;;0.90;0.87;;;8.30;99.90;;;;;;5066026;28;20327;-72
2023/03/26 01:05:02;;;;;;;1.87;1.00;;;8.30;99.90;;;;;;5065697;28;20286;-71
2023/03/26 01:07:29;;;;;;;1.87;1.30;;;8.20;99.90;;;;;;5065513;28;20654;-71
2023/03/26 01:09:59;;;;;;;2.53;1.10;;;8.20;99.90;;;;;;5065716;28;20272;-71
2023/03/26 01:12:30;;;;;;;1.83;1.47;;;8.20;99.90;;;;;;5066165;28;20698;-71
2023/03/26 01:15:02;;;;;;;2.83;1.30;;;8.20;99.90;;;;;;5066065;28;20191;-72
2023/03/26 01:17:32;;;;;;;2.40;1.40;;;8.10;99.90;;;;;;5065750;28;20290;-72
2023/03/26 01:20:11;;;;;;;1.30;1.20;;;8.10;99.90;;;;;;5065591;28;20222;-72
2023/03/26 01:22:41;;;;;;;2.50;1.67;;;8.00;99.90;;;;;;5065975;28;20230;-71
2023/03/26 01:25:09;;;;;;;2.87;1.70;;;7.90;99.90;;;;;;5066014;28;20294;-71
2023/03/26 01:27:42;;;;;;;1.13;1.10;;;7.90;99.90;;;;;;5065487;28;20295;-71
2023/03/26 01:30:15;;;;;;;1.37;1.27;;;7.80;99.90;;;;;;5063938;28;20319;-71
2023/03/26 01:32:59;;;;;;;1.97;1.30;;;7.80;99.90;;;;;;5063839;28;20757;-71
2023/03/26 01:35:45;;;;;;;1.13;1.03;;;7.80;99.90;;;;;;5065248;28;20191;-71
2023/03/26 01:38:22;;;;;;;0.80;0.80;;;7.80;99.90;;;;;;5064763;28;20231;-72
2023/03/26 01:40:58;;;;;;;1.10;0.73;;;7.70;99.90;;;;;;5045369;28;20218;-71
2023/03/26 01:43:32;;;;;;;1.30;0.70;;;7.60;99.90;;;;;;5060618;28;20207;-71
2023/03/26 01:46:03;;;;;;;0.60;0.60;;;7.60;99.90;;;;;;5059063;28;20775;-71
2023/03/26 01:48:33;;;;;;;1.13;0.67;;;7.60;99.90;;;;;;5045354;28;20710;-71
2023/03/26 01:51:00;;;;;;;0.80;0.80;;;7.60;99.90;;;;;;5045179;28;20331;-71
2023/03/26 01:53:27;;;;;;;0.73;0.50;;;7.60;99.90;;;;;;5045478;28;20212;-71
2023/03/26 01:56:05;;;;;;;0.70;0.70;;;7.60;99.90;;;;;;5047719;28;20750;-71
2023/03/26 01:58:39;;;;;;;0.87;0.77;;;7.60;99.90;;;;;;5065499;28;20204;-72
2023/03/26 02:01:19;;;;;;;0.93;0.93;;;7.60;99.90;;;;;;5065533;28;20195;-71
2023/03/26 02:03:54;;;;;;;1.53;0.90;;;7.60;99.90;;;;;;5064710;28;20310;-71
2023/03/26 02:06:29;;;;;;;1.30;1.00;;;7.70;99.90;;;;;;5065418;28;20200;-71
2023/03/26 02:09:01;;;;;;;1.10;0.87;;;7.70;99.90;;;;;;5064635;28;20721;-71
2023/03/26 02:11:29;;;;;;;1.47;1.00;;;7.70;99.90;;;;;;5060756;28;20220;-71
2023/03/26 02:13:56;;;;;;;1.37;1.10;;;7.70;99.90;;;;;;5045044;28;20803;-71
2023/03/26 02:16:23;;;;;;;1.37;1.27;;;7.70;99.90;;;;;;5045367;28;20291;-71
2023/03/26 02:18:54;;;;;;;3.50;1.17;;;7.70;99.90;;;;;;5044993;28;20303;-71
2023/03/26 02:21:24;;;;;;;1.97;1.10;;;7.70;99.90;;;;;;5045306;28;20227;-71
2023/03/26 02:23:56;;;;;;;1.37;1.27;;;7.70;99.90;;;;;;5045920;28;20208;-71
2023/03/26 02:26:24;;;;;;;1.30;1.03;;;7.70;99.90;;;;;;5065138;28;20248;-71
2023/03/26 02:28:52;;;;;;;1.17;1.10;;;7.80;99.90;;;;;;5064919;28;20951;-71
2023/03/26 02:31:20;;;;;;;1.90;1.30;;;7.70;99.90;;;;;;5068528;28;20330;-71
2023/03/26 02:33:48;;;;;;;1.27;1.17;;;7.70;99.90;;;;;;5068892;28;20737;-71
2023/03/26 02:36:17;;;;;;;2.10;1.00;;;7.70;99.90;;;;;;5053849;28;20273;-72
2023/03/26 02:38:44;;;;;;;2.97;1.50;;;7.70;99.90;;;;;;5055894;28;20605;-71
2023/03/26 02:41:11;;;;;;;2.40;1.20;;;7.70;99.90;;;;;;5068895;28;20211;-71
2023/03/26 02:43:37;;;;;;;2.20;1.40;;;7.70;99.90;;;;;;5068627;28;20766;-71
2023/03/26 02:46:06;;;;;;;1.30;1.20;;;7.70;99.90;;;;;;5068520;28;20752;-71
2023/03/26 02:48:34;;;;;;;0.93;0.90;;;7.70;99.90;;;;;;5068709;28;20294;-71
2023/03/26 02:51:01;;;;;;;1.50;1.30;;;7.60;99.90;;;;;;5068030;28;20231;-71
2023/03/26 02:53:29;;;;;;;1.97;1.17;;;7.60;99.90;;;;;;5061439;28;20297;-71
2023/03/26 02:55:56;;;;;;;2.57;1.70;;;7.70;99.90;;;;;;5068425;28;20207;-71
2023/03/26 02:58:24;;;;;;;1.57;1.40;;;7.70;99.90;;;;;;5068682;28;20235;-71
2023/03/26 03:00:54;;;;;;;2.07;1.40;;;7.70;99.90;;;;;;5068328;28;20733;-71
2023/03/26 03:03:23;;;;;;;1.30;1.20;;;7.70;99.90;;;;;;5068560;28;20315;-71
2023/03/26 03:05:50;;;;;;;2.23;1.50;;;7.70;99.90;;;;;;5068240;28;20215;-71
2023/03/26 03:08:18;;;;;;;2.83;1.67;;;7.70;99.90;;;;;;5067881;28;20722;-71
2023/03/26 03:10:55;;;;;;;3.53;1.47;;;7.70;99.90;;;;;;5068659;28;20261;-71
2023/03/26 03:13:22;;;;;;;1.67;1.57;;;7.70;99.90;;;;;;5048471;28;20196;-71
2023/03/26 03:15:49;;;;;;;2.37;1.83;;;7.70;99.90;;;;;;5047737;28;20670;-71
2023/03/26 03:18:16;;;;;;;2.33;1.50;;;7.70;99.90;;;;;;5048027;28;20208;-71
2023/03/26 03:20:44;;;;;;;1.63;1.40;;;7.70;99.90;;;;;;5048056;28;20302;-71
2023/03/26 03:23:11;;;;;;;2.70;1.43;;;7.70;99.90;;;;;;5052717;28;20640;-71
2023/03/26 03:25:39;;;;;;;1.70;1.60;;;7.70;99.90;;;;;;5047743;28;20212;-71
2023/03/26 03:28:07;;;;;;;2.07;1.77;;;7.70;99.90;;;;;;5047623;28;20218;-71
2023/03/26 03:30:34;;;;;;;2.03;1.73;;;7.70;99.90;;;;;;5048027;28;20238;-71
2023/03/26 03:33:02;;;;;;;3.13;2.00;;;7.70;99.90;;;;;;5067403;28;20294;-71
2023/03/26 03:35:29;;;;;;;1.80;1.70;;;7.70;99.90;;;;;;5067371;28;20212;-71
2023/03/26 03:37:58;;;;;;;3.10;1.50;;;7.70;99.90;;;;;;5065595;28;20224;-71
2023/03/26 03:40:25;;;;;;;1.63;1.43;;;7.70;99.90;;;;;;5047199;28;20207;-71
2023/03/26 03:42:52;;;;;;;1.80;1.70;;;7.70;99.90;;;;;;5047634;28;20244;-71
2023/03/26 03:45:19;;;;;;;2.07;1.53;;;7.70;99.90;;;;;;5047630;28;20218;-71
2023/03/26 03:47:46;;;;;;;2.90;1.67;;;7.70;99.90;;;;;;5047561;28;20258;-71
2023/03/26 03:50:13;;;;;;;1.57;1.47;;;7.80;99.90;;;;;;5057451;28;20641;-71
2023/03/26 03:52:40;;;;;;;1.40;1.30;;;7.80;99.90;;;;;;5067627;28;20334;-71
2023/03/26 03:55:09;;;;;;;3.07;1.47;;;7.80;99.90;;;;;;5067216;28;20302;-71
2023/03/26 03:57:37;;;;;;;1.90;1.70;;;7.80;99.90;;;;;;5066566;28;20585;-71
2023/03/26 04:00:06;;;;;;;3.27;1.60;;;7.80;99.90;;;;;;5047428;28;20319;-71
2023/03/26 04:02:34;;;;;;;2.43;1.50;;;7.70;99.90;;;;;;5047067;28;20258;-71
2023/03/26 04:05:01;;;;;;;2.30;1.70;;;7.70;99.90;;;;;;5046721;28;20250;-72
2023/03/26 04:07:31;;;;;;;2.53;1.73;;;7.70;99.90;;;;;;5046833;28;20295;-71
2023/03/26 04:10:01;;;;;;;2.73;1.50;;;7.70;99.90;;;;;;5046874;28;20203;-71
2023/03/26 04:12:30;;;;;;;1.43;1.33;;;7.70;99.90;;;;;;5059748;28;20223;-71
2023/03/26 04:14:57;;;;;;;2.10;1.37;;;7.70;99.90;;;;;;5066820;28;20204;-71
2023/03/26 04:17:24;;;;;;;4.67;1.47;;;7.70;99.90;;;;;;5066979;28;20758;-71
2023/03/26 04:19:53;;;;;;;1.93;1.60;;;7.70;99.90;;;;;;5061823;28;20303;-71
2023/03/26 04:22:21;;;;;;;1.70;1.53;;;7.70;99.90;;;;;;5047385;28;20215;-71
2023/03/26 04:24:49;;;;;;;3.90;1.40;;;7.70;99.90;;;;;;5047375;28;20203;-73
2023/03/26 04:27:20;;;;;;;2.20;1.43;;;7.60;99.90;;;;;;5050280;28;20200;-72
2023/03/26 04:29:51;;;;;;;2.90;1.50;;;7.60;99.90;;;;;;5067096;28;20202;-71
2023/03/26 04:32:23;;;;;;;1.50;1.40;;;7.60;99.90;;;;;;5066894;28;20858;-71
2023/03/26 04:34:51;;;;;;;2.37;1.30;;;7.60;99.90;;;;;;5066667;28;20749;-71
2023/03/26 04:37:25;;;;;;;1.30;1.20;;;7.50;99.90;;;;;;5066640;28;20207;-71
2023/03/26 04:39:53;;;;;;;3.10;1.37;;;7.50;99.90;;;;;;5066564;28;20202;-71
2023/03/26 04:42:20;;;;;;;1.77;1.33;;;7.50;99.90;;;;;;5054938;28;20212;-71
2023/03/26 04:44:49;;;;;;;1.37;0.77;;;7.50;99.90;;;;;;5046323;28;20291;-71
2023/03/26 04:47:17;;;;;;;1.67;1.00;;;7.40;99.90;;;;;;5062924;28;20284;-71
2023/03/26 04:49:44;;;;;;;4.63;1.30;;;7.40;99.90;;;;;;5064775;28;20195;-71
2023/03/26 04:52:12;;;;;;;2.93;1.30;;;7.40;99.90;;;;;;5065310;28;20330;-72
2023/03/26 04:54:39;;;;;;;1.67;1.10;;;7.50;99.90;;;;;;5066194;28;20295;-72
2023/03/26 04:57:12;;;;;;;1.50;1.20;;;7.40;99.90;;;;;;5066117;28;20219;-72
2023/03/26 04:59:40;;;;;;;1.40;1.30;;;7.40;99.90;;;;;;5066676;28;20196;-72
2023/03/26 05:02:08;;;;;;;1.50;1.40;;;7.40;99.90;;;;;;5066553;28;20207;-72
2023/03/26 05:04:37;;;;;;;2.90;1.63;;;7.40;99.90;;;;;;5066561;28;20210;-72
2023/03/26 05:07:04;;;;;;;2.53;1.80;;;7.40;99.90;;;;;;5066443;28;20204;-72
2023/03/26 05:09:32;;;;;;;2.53;1.60;;;7.50;99.90;;;;;;5066111;28;20647;-72
2023/03/26 05:11:58;;;;;;;1.67;1.40;;;7.40;99.90;;;;;;5057288;28;20244;-72
2023/03/26 05:14:25;;;;;;;1.87;1.23;;;7.50;99.90;;;;;;5046499;28;20244;-72
2023/03/26 05:16:53;;;;;;;3.17;1.67;;;7.40;99.90;;;;;;5050567;28;20287;-72
2023/03/26 05:19:21;;;;;;;4.53;1.87;;;7.50;99.90;;;;;;5045657;28;20238;-72
2023/03/26 05:21:48;;;;;;;2.47;1.60;;;7.50;99.90;;;;;;5045359;28;20211;-72
2023/03/26 05:24:15;;;;;;;1.60;1.47;;;7.50;99.90;;;;;;5045682;28;20654;-72
2023/03/26 05:26:42;;;;;;;2.27;1.50;;;7.50;99.90;;;;;;5045301;28;20208;-72
2023/03/26 05:29:09;;;;;;;2.73;1.50;;;7.60;99.90;;;;;;5045479;28;20243;-72
2023/03/26 05:31:36;;;;;;;2.17;1.60;;;7.60;99.90;;;;;;5057131;28;20233;-72
2023/03/26 05:34:03;;;;;;;2.03;1.30;;;7.60;99.90;;;;;;5065275;28;20586;-72
2023/03/26 05:36:32;;;;;;;4.73;1.50;;;7.60;99.90;;;;;;5065940;28;20524;-72
2023/03/26 05:38:59;;;;;;;1.70;1.27;;;7.60;99.90;;;;;;5065552;28;20645;-72
2023/03/26 05:41:26;;;;;;;3.43;1.40;;;7.70;99.90;;;;;;5061532;28;20211;-74
2023/03/26 05:43:52;;;;;;;1.70;1.30;;;7.70;99.90;;;;;;5064934;28;20212;-72
2023/03/26 05:46:21;;;;;;;2.20;1.17;;;7.60;99.90;;;;;;5065528;28;20297;-72
2023/03/26 05:48:48;;;;;;;1.30;1.20;;;7.60;99.90;;;;;;5065542;28;20315;-71
2023/03/26 05:51:15;;;;;;;3.43;1.63;;;7.60;99.90;;;;;;5065529;28;20242;-71
2023/03/26 05:53:44;;;;;;;2.10;1.60;;;7.60;99.90;;;;;;5065532;28;20204;-72
2023/03/26 05:56:11;;;;;;;4.47;1.60;;;7.60;99.90;;;;;;5065152;28;20219;-71
2023/03/26 05:58:38;;;;;;;2.03;1.40;;;7.70;99.90;;;;;;5065495;28;20253;-71
2023/03/26 06:01:08;;;;;;;1.30;1.20;;;7.70;99.90;;;;;;5065356;28;20231;-72
2023/03/26 06:03:37;;;;;;;4.60;1.50;;;7.70;99.90;;;;;;5065093;28;20686;-71
2023/03/26 06:06:07;;;;;;;5.07;1.70;;;7.60;99.90;;;;;;5064953;28;20209;-71
2023/03/26 06:08:33;;;;;;;2.23;1.30;;;7.70;99.90;;;;;;5064919;28;20241;-71
2023/03/26 06:11:03;;;;;;;3.67;1.60;;;7.70;99.90;;;;;;5064835;28;20623;-71
2023/03/26 06:13:30;;;;;;;3.23;1.40;;;7.60;99.90;;;;;;5050734;28;20263;-71
2023/03/26 06:15:57;;;;;;;2.13;1.43;;;7.60;99.90;;;;;;5045426;28;20231;-72
2023/03/26 06:18:25;;;;;;;3.53;1.60;;;7.70;99.90;;;;;;5045371;28;20885;-71
2023/03/26 06:20:52;;;;;;;2.83;1.30;;;7.70;99.90;;;;;;5050998;28;20307;-72
2023/03/26 06:23:19;;;;;;;1.73;1.20;;;7.70;99.90;;;;;;5045916;28;20300;-71
2023/03/26 06:25:46;;;;;;;1.00;1.00;;;7.70;99.90;;;;;;5045513;28;20287;-71
2023/03/26 06:28:15;;;;;;;2.30;1.13;;;7.80;99.90;;;;;;5045556;28;20299;-72
2023/03/26 06:30:42;;;;;;;1.90;1.37;;;7.80;99.90;;;;;;5049520;28;20199;-72
2023/03/26 06:33:10;;;;;;;2.93;1.13;;;7.70;99.90;;;;;;5065455;28;20234;-71
2023/03/26 06:35:41;;;;;;;2.20;1.40;;;7.80;99.90;;;;;;5064834;28;20654;-72
2023/03/26 06:38:08;;;;;;;1.40;1.07;;;7.70;99.90;;;;;;5065272;28;20223;-72
2023/03/26 06:40:35;;;;;;;1.97;1.30;;;7.70;99.90;;;;;;5065136;28;20286;-72
2023/03/26 06:43:02;;;;;;;2.43;1.30;;;7.70;99.90;;;;;;5047127;28;20967;-72
2023/03/26 06:45:32;;;;;;;2.57;1.37;;;7.70;99.90;;;;;;5044705;28;20936;-72
2023/03/26 06:47:59;;;;;;;2.10;1.20;;;7.70;99.90;;;;;;5059017;28;20302;-71
2023/03/26 06:50:27;;;;;;;2.63;0.90;;;7.70;99.90;;;;;;5064633;28;20726;-72
2023/03/26 06:52:54;;;;;;;2.63;1.00;;;7.80;99.90;;;;;;5064778;28;20330;-72
2023/03/26 06:55:21;;;;;;;3.03;1.27;;;7.80;99.90;;;;;;5065273;28;20203;-72
2023/03/26 06:57:49;;;;;;;2.67;1.10;;;7.80;99.90;;;;;;5065321;28;20311;-72
2023/03/26 07:00:19;;;;;;;3.70;1.23;;;7.80;99.90;;;;;;5065044;28;20711;-72
2023/03/26 07:02:47;;;;;;;1.40;1.20;;;7.80;99.90;;;;;;5065562;28;20238;-72
2023/03/26 07:05:15;;;;;;;2.10;1.57;;;7.80;99.90;;;;;;5065078;28;20211;-72
2023/03/26 07:07:42;;;;;;;3.77;1.60;;;7.80;99.90;;;;;;5064556;28;20275;-72
2023/03/26 07:10:10;;;;;;;2.80;1.23;;;7.80;99.90;;;;;;5047348;28;21118;-72
2023/03/26 07:12:36;;;;;;;3.43;1.10;;;7.90;99.90;;;;;;5058557;28;20235;-72
2023/03/26 07:15:04;;;;;;;1.53;1.20;;;7.90;99.90;;;;;;5064804;28;20303;-72
2023/03/26 07:17:31;;;;;;;3.83;1.20;;;8.00;99.90;;;;;;5052755;28;20701;-72
2023/03/26 07:20:00;;;;;;;5.23;2.20;;;8.00;99.90;;;;;;5048017;28;20299;-72
2023/03/26 07:22:27;;;;;;;3.67;1.80;;;8.00;99.90;;;;;;5048281;28;20231;-72
2023/03/26 07:24:55;;;;;;;1.93;1.40;;;8.00;99.90;;;;;;5048050;28;20603;-72
2023/03/26 07:27:35;;;;;;;2.20;1.47;;;8.00;99.90;;;;;;5047890;28;20678;-72
2023/03/26 07:30:07;;;;;;;3.43;1.20;;;8.00;99.90;;;;;;5048134;28;20200;-73
2023/03/26 07:32:42;;;;;;;2.43;1.77;;;8.00;99.90;;;;;;5067605;28;20848;-72
2023/03/26 07:35:17;;;;;;;2.93;1.30;;;8.00;99.90;;;;;;5068066;28;20210;-72
2023/03/26 07:37:52;;;;;;;1.83;1.03;;;8.00;99.90;;;;;;5068304;28;20330;-72
2023/03/26 07:40:37;;;;;;;2.90;1.17;;;8.10;99.90;;;;;;5068138;28;20282;-72
2023/03/26 07:43:16;;;;;;;4.63;1.40;;;8.10;99.90;;;;;;5050407;28;20215;-72
2023/03/26 07:45:44;;;;;;;3.03;1.10;;;8.10;99.90;;;;;;5047690;28;20283;-72
2023/03/26 07:48:17;;;;;;;4.03;1.17;;;8.10;99.90;;;;;;5048019;28;20287;-72
2023/03/26 07:50:47;;;;;;;3.73;1.63;;;8.10;99.90;;;;;;5047487;28;20746;-72
2023/03/26 07:53:14;;;;;;;1.83;0.90;;;8.10;99.90;;;;;;5047447;28;20742;-72
2023/03/26 07:55:50;;;;;;;2.97;1.50;;;8.00;99.90;;;;;;5047600;28;20294;-72
2023/03/26 07:58:38;;;;;;;5.77;1.60;;;8.00;99.90;;;;;;5047500;28;20192;-72
2023/03/26 08:01:11;;;;;;;3.57;1.30;;;8.00;99.90;;;;;;5047437;28;20554;-72
2023/03/26 08:04:00;;;;;;;3.63;1.43;;;8.00;99.90;;;;;;5047326;28;20287;-72
2023/03/26 08:06:35;;;;;;;2.60;1.07;;;8.00;99.90;;;;;;5047500;28;20870;-72
2023/03/26 08:09:11;;;;;;;3.20;1.33;;;8.00;99.90;;;;;;5046908;28;20245;-72
2023/03/26 08:11:48;;;;;;;4.73;1.30;;;8.00;99.90;;;;;;5047523;28;20203;-72
2023/03/26 08:14:30;;;;;;;5.07;1.47;;;8.00;99.90;;;;;;5067283;28;20294;-73
2023/03/26 08:17:07;;;;;;;4.20;1.73;;;8.10;99.90;;;;;;5067890;28;20195;-72
2023/03/26 08:19:57;;;;;;;2.47;1.50;;;8.10;99.90;;;;;;5067449;28;20311;-72
2023/03/26 08:22:30;;;;;;;5.53;1.77;;;8.10;99.90;;;;;;5067796;28;20195;-72
2023/03/26 08:25:12;;;;;;;4.17;2.20;;;8.20;99.90;;;;;;5067002;28;20678;-73
2023/03/26 08:27:42;;;;;;;6.50;1.50;;;8.20;99.90;;;;;;5067238;28;20279;-73
2023/03/26 08:30:14;;;;;;;1.37;1.17;;;8.30;99.90;;;;;;5067110;28;20207;-72
2023/03/26 08:32:42;;;;;;;4.33;1.83;;;8.30;99.90;;;;;;5046998;28;20224;-72
2023/03/26 08:35:12;;;;;;;2.57;2.00;;;8.30;99.90;;;;;;5046522;28;20299;-72
2023/03/26 08:37:40;;;;;;;2.10;1.57;;;8.40;99.90;;;;;;5046760;28;20227;-72
2023/03/26 08:40:09;;;;;;;4.00;1.50;;;8.40;99.90;;;;;;5046749;28;20307;-72
2023/03/26 08:43:16;;;;;;;1.57;1.30;;;8.40;99.90;;;;;;5046958;28;20211;-72
2023/03/26 08:46:07;;;;;;;3.40;1.23;;;8.40;99.90;;;;;;5040738;28;20754;-72
2023/03/26 08:49:11;;;;;;;3.13;1.90;;;8.30;99.90;;;;;;5046423;28;20220;-72
2023/03/26 08:52:18;;;;;;;2.47;1.50;;;8.40;99.90;;;;;;5046695;28;20200;-73
2023/03/26 08:55:10;;;;;;;2.57;1.40;;;8.40;99.90;;;;;;5004045;28;20620;-72
2023/03/26 08:58:06;;;;;;;3.60;1.50;;;8.50;99.90;;;;;;5046809;28;20200;-71
2023/03/26 09:00:45;;;;;;;2.37;1.47;;;8.50;99.90;;;;;;5050885;28;20253;-72
2023/03/26 09:03:40;;;;;;;2.70;1.60;;;8.60;99.90;;;;;;5046179;28;20202;-72
2023/03/26 09:06:34;;;;;;;1.57;1.40;;;8.50;99.90;;;;;;5046499;28;20196;-72
2023/03/26 09:09:45;;;;;;;3.63;1.30;;;8.60;99.90;;;;;;5053189;28;20242;-72
2023/03/26 09:12:57;;;;;;;3.43;1.37;;;8.60;99.90;;;;;;5055518;28;20207;-71
2023/03/26 09:16:05;;;;;;;4.03;1.43;;;8.60;99.90;;;;;;5055631;28;20274;-71
2023/03/26 09:18:58;;;;;;;4.67;1.40;;;8.70;99.90;;;;;;5051195;28;20211;-71
2023/03/26 09:21:54;;;;;;;7.47;4.93;;;8.60;99.90;;;;;;5054284;28;20605;-72
2023/03/26 09:24:40;;;;;;;2.43;1.93;;;8.70;99.90;;;;;;5045686;28;20265;-71
2023/03/26 09:27:31;;;;;;;3.20;1.67;;;8.70;99.90;;;;;;5050428;28;20272;-72
2023/03/26 09:30:32;;;;;;;2.50;1.77;;;8.70;99.90;;;;;;5065917;28;20188;-71
2023/03/26 09:33:32;;;;;;;2.27;1.37;;;8.70;99.90;;;;;;5065544;28;20314;-71
2023/03/26 09:36:19;;;;;;;2.23;1.60;;;8.80;99.90;;;;;;5065418;28;20821;-72
2023/03/26 09:38:51;;;;;;;2.83;1.50;;;8.80;99.90;;;;;;5065115;28;20287;-72
2023/03/26 09:41:29;;;;;;;2.67;1.30;;;8.80;99.90;;;;;;5062932;28;20285;-71
2023/03/26 09:44:33;;;;;;;2.43;1.00;;;8.90;99.90;;;;;;5045766;28;20278;-71
2023/03/26 09:47:29;;;;;;;1.60;1.20;;;9.00;99.90;;;;;;5045705;28;20311;-72
2023/03/26 09:50:15;;;;;;;2.53;1.43;;;9.10;99.90;;;;;;5045061;28;20239;-72
2023/03/26 09:53:22;;;;;;;3.93;1.33;;;9.10;99.90;;;;;;5045367;28;20226;-71
2023/03/26 09:56:03;;;;;;;3.23;1.43;;;9.20;99.90;;;;;;5045395;28;20204;-71
2023/03/26 09:59:08;;;;;;;3.37;1.40;;;9.20;99.90;;;;;;5050560;28;20223;-72
2023/03/26 10:01:42;;;;;;;3.27;1.73;;;9.30;99.90;;;;;;5045536;28;20669;-71
2023/03/26 10:04:41;;;;;;;2.23;1.13;;;9.40;99.90;;;;;;5045348;28;20196;-71
2023/03/26 10:07:28;;;;;;;1.63;1.20;;;9.30;99.90;;;;;;5045566;28;20202;-71
2023/03/26 10:10:01;;;;;;;4.23;1.30;;;9.30;99.90;;;;;;5045131;28;20192;-71
2023/03/26 10:12:34;;;;;;;2.27;1.13;;;9.30;99.90;;;;;;5057693;28;20298;-71
2023/03/26 10:15:11;;;;;;;4.13;1.57;;;9.30;99.90;;;;;;5065289;28;20269;-72
2023/03/26 10:17:54;;;;;;;3.23;1.60;;;9.30;99.90;;;;;;5065569;28;20619;-72
2023/03/26 10:20:57;;;;;;;2.80;1.73;;;9.20;99.90;;;;;;5065296;28;20251;-72
2023/03/26 10:23:52;;;;;;;2.03;1.47;;;9.30;99.90;;;;;;5065223;28;20235;-72
2023/03/26 10:26:31;;;;;;;1.67;1.10;;;9.30;99.90;;;;;;5065075;28;20211;-71
2023/03/26 10:29:22;;;;;;;2.30;1.40;;;9.30;99.90;;;;;;5065075;28;20718;-71
2023/03/26 10:31:54;;;;;;;4.00;1.50;;;9.40;99.90;;;;;;5065434;28;20286;-72
2023/03/26 10:34:46;;;;;;;3.93;1.90;;;9.40;99.90;;;;;;5065586;28;20223;-73
2023/03/26 10:37:25;;;;;;;2.47;1.90;;;9.50;99.90;;;;;;5065072;28;20310;-73
2023/03/26 10:40:18;;;;;;;2.03;1.73;;;9.60;99.90;;;;;;5064719;28;20249;-72
2023/03/26 10:43:13;;;;;;;5.63;1.50;;;9.60;99.90;;;;;;5065029;28;20290;-72
2023/03/26 10:45:57;;;;;;;4.30;2.10;;;9.60;99.90;;;;;;5064761;28;20287;-72
2023/03/26 10:48:34;;;;;;;3.57;1.87;;;9.60;99.90;;;;;;5065081;28;20302;-72
2023/03/26 10:51:35;;;;;;;2.60;1.60;;;9.60;99.90;;;;;;5065857;28;20676;-72
2023/03/26 10:54:10;;;;;;;4.00;1.87;;;9.60;99.90;;;;;;5055388;28;20316;-73
2023/03/26 10:56:43;;;;;;;4.30;1.83;;;9.70;99.90;;;;;;5048670;28;20192;-73
2023/03/26 10:59:13;;;;;;;3.17;2.10;;;9.80;99.90;;;;;;5049044;28;20195;-73
2023/03/26 11:01:46;;;;;;;2.07;1.50;;;9.90;99.90;;;;;;5056992;28;20208;-73
2023/03/26 11:04:27;;;;;;;3.33;1.80;;;10.00;99.90;;;;;;5068590;28;20283;-71
2023/03/26 11:07:05;;;;;;;2.37;1.73;;;10.00;99.90;;;;;;5068342;28;20565;-71
2023/03/26 11:09:44;;;;;;;8.23;1.90;;;10.10;99.90;;;;;;5068273;28;20613;-73
2023/03/26 11:12:20;;;;;;;5.83;2.10;;;10.10;99.90;;;;;;5068501;28;20294;-72
2023/03/26 11:14:53;;;;;;;2.97;1.90;;;10.10;99.90;;;;;;5068335;28;20306;-72
2023/03/26 11:17:31;;;;;;;2.77;1.60;;;10.10;99.90;;;;;;5068390;28;20219;-72
2023/03/26 11:20:04;;;;;;;4.37;2.30;;;10.10;99.90;;;;;;5068055;28;20199;-72
2023/03/26 11:22:40;;;;;;;4.13;1.70;;;10.10;99.90;;;;;;5067859;28;20198;-72
2023/03/26 11:25:35;;;;;;;3.80;1.80;;;10.10;99.90;;;;;;5067815;28;20642;-72
2023/03/26 11:28:12;;;;;;;1.83;1.40;;;10.20;99.90;;;;;;5067615;28;20302;-72
2023/03/26 11:30:46;;;;;;;4.60;1.80;;;10.30;99.90;;;;;;5068301;28;20213;-72
2023/03/26 11:33:18;;;;;;;2.10;1.77;;;10.30;99.90;;;;;;5067843;28;20263;-72
2023/03/26 11:35:48;;;;;;;4.87;2.10;;;10.40;99.90;;;;;;5067727;28;20203;-73
2023/03/26 11:38:21;;;;;;;2.67;1.70;;;10.40;99.90;;;;;;5068234;28;20284;-73
2023/03/26 11:40:54;;;;;;;2.57;1.70;;;10.40;99.90;;;;;;5067957;28;20227;-72
2023/03/26 11:43:25;;;;;;;4.13;1.60;;;10.30;99.90;;;;;;5047864;28;20204;-72
2023/03/26 11:45:53;;;;;;;4.10;2.10;;;10.30;99.90;;;;;;5047797;28;20899;-73
2023/03/26 11:48:26;;;;;;;2.70;1.63;;;10.20;99.90;;;;;;5048225;28;20227;-72
2023/03/26 11:50:57;;;;;;;1.47;1.00;;;10.10;99.90;;;;;;5052138;28;20204;-72
2023/03/26 11:53:29;;;;;;;4.00;1.43;;;10.10;99.90;;;;;;5047687;28;21024;-72
2023/03/26 11:56:03;;;;;;;3.53;1.20;;;10.00;99.90;;;;;;5047965;28;20214;-72
2023/03/26 11:58:35;;;;;;;1.87;0.80;;;10.00;99.90;;;;;;5061061;28;20207;-72
2023/03/26 12:01:05;;;;;;;2.07;1.10;;;10.00;99.90;;;;;;5067391;28;20203;-72
2023/03/26 12:03:32;;;;;;;3.33;1.20;;;10.10;99.90;;;;;;5067243;28;20279;-72
2023/03/26 12:06:01;;;;;;;1.53;1.20;;;10.10;99.90;;;;;;5067343;28;20280;-72
2023/03/26 12:08:34;;;;;;;1.57;1.20;;;10.20;99.90;;;;;;5067115;28;21062;-72
2023/03/26 12:11:08;;;;;;;1.30;0.90;;;10.30;99.90;;;;;;5066450;28;20195;-72
2023/03/26 12:13:38;;;;;;;2.13;1.10;;;10.30;99.90;;;;;;5064501;28;20250;-72
2023/03/26 12:16:10;;;;;;;1.40;0.90;;;10.30;99.90;;;;;;5067424;28;20203;-72
2023/03/26 12:18:38;;;;;;;1.47;1.10;;;10.40;99.90;;;;;;5067224;28;20191;-72
2023/03/26 12:21:08;;;;;;;2.13;1.23;;;10.50;99.90;;;;;;5058285;28;20212;-72
2023/03/26 12:23:44;;;;;;;1.63;1.40;;;10.50;99.90;;;;;;5047595;28;20204;-72
2023/03/26 12:26:16;;;;;;;5.33;1.30;;;10.70;99.90;;;;;;5066662;28;20227;-72
2023/03/26 12:28:47;;;;;;;3.33;1.00;;;10.90;99.90;;;;;;5067166;28;20200;-72
2023/03/26 12:31:17;;;;;;;2.23;1.20;;;11.00;99.90;;;;;;5067051;28;20307;-72
2023/03/26 12:33:51;;;;;;;1.97;1.30;;;11.10;99.90;;;;;;5066890;28;20219;-72
2023/03/26 12:36:22;;;;;;;2.77;1.27;;;11.30;99.90;;;;;;5067044;28;20227;-72
2023/03/26 12:38:49;;;;;;;2.43;1.47;;;11.30;99.90;;;;;;5066568;28;20195;-72
2023/03/26 12:41:18;;;;;;;2.17;1.30;;;11.30;99.90;;;;;;5063828;28;20301;-72
2023/03/26 12:43:46;;;;;;;1.77;0.97;;;11.30;99.90;;;;;;5046690;28;20307;-71
2023/03/26 12:46:25;;;;;;;1.53;1.43;;;11.30;99.90;;;;;;5057091;28;20751;-72
2023/03/26 12:48:53;;;;;;;4.30;1.57;;;11.30;99.90;;;;;;5066543;28;20200;-72
2023/03/26 12:51:34;;;;;;;2.53;1.40;;;11.40;99.90;;;;;;5066578;28;20235;-72
2023/03/26 12:54:16;;;;;;;1.37;1.00;;;11.50;99.90;;;;;;5059408;28;20220;-72
2023/03/26 12:56:58;;;;;;;2.20;1.40;;;11.50;99.90;;;;;;5046149;28;20590;-72
2023/03/26 12:59:47;;;;;;;2.50;0.90;;;11.40;99.90;;;;;;5046497;28;20219;-72
2023/03/26 13:02:32;;;;;;;1.20;1.00;;;11.30;99.90;;;;;;5046597;28;20276;-72
2023/03/26 13:05:18;;;;;;;3.17;0.90;;;11.40;99.90;;;;;;5046028;28;20286;-72
2023/03/26 13:07:56;;;;;;;1.77;1.17;;;11.30;99.90;;;;;;5046221;28;20244;-72
2023/03/26 13:10:36;;;;;;;1.90;1.30;;;11.30;99.90;;;;;;5066576;28;20214;-72
2023/03/26 13:13:15;;;;;;;4.70;1.40;;;11.30;99.90;;;;;;5060331;28;20215;-73
2023/03/26 13:15:45;;;;;;;1.77;1.30;;;11.20;99.90;;;;;;5066319;28;20199;-72
2023/03/26 13:18:21;;;;;;;1.33;1.00;;;11.10;99.90;;;;;;5066159;28;20199;-73
2023/03/26 13:20:54;;;;;;;2.73;1.13;;;11.10;99.90;;;;;;5059319;28;20208;-73
2023/03/26 13:23:34;;;;;;;1.53;1.30;;;11.00;99.90;;;;;;5046373;28;20203;-73
2023/03/26 13:26:12;;;;;;;2.33;1.23;;;10.90;99.90;;;;;;5046015;28;20320;-73
2023/03/26 13:28:48;;;;;;;1.67;0.90;;;10.90;99.90;;;;;;5046027;28;20296;-73